Degognia, Illinois
Current Conditions -  °F | °C
As of 3:52 PM on Friday 24 Oct 2014 (Local Time) from KMDH Reporting Station
Few Clouds Few Clouds  
Wind Chill: 70°   Ceiling: Unl
Heat Index: 70°   Visibility: 10mi
Dew Point: 52°   Wind: 3mph
Humidity: 53%   Direction: 280°W
Pressure: 30.06"   Gusts: NA
Location:  37.7458°N, 89.5469°W
Report Text: KMDH 242052Z 28003KT 10SM FEW036 21/11 A3006 RMK AO2 SLP177 T02110111 56017
Loading
Personal Weather Stations






























Interactive Weather Map
Tropical Storm Tracking
New forecast layout! Learn more

10-Day Weather Forecast

Advertisements
Track Severe Weather on mobile